sensor_id;sensor_type;location;lat;lon;timestamp;P1;durP1;ratioP1;P2;durP2;ratioP2
4748;SDS011;2388;53.582;9.962;2023-04-15T00:00:09;2.77;;;2.60;;
4748;SDS011;2388;53.582;9.962;2023-04-15T00:02:35;2.67;;;2.47;;
4748;SDS011;2388;53.582;9.962;2023-04-15T00:05:01;2.53;;;2.40;;
4748;SDS011;2388;53.582;9.962;2023-04-15T00:07:27;3.20;;;2.70;;
4748;SDS011;2388;53.582;9.962;2023-04-15T00:09:53;2.57;;;2.40;;
4748;SDS011;2388;53.582;9.962;2023-04-15T00:12:21;3.63;;;2.37;;
4748;SDS011;2388;53.582;9.962;2023-04-15T00:14:47;3.37;;;3.07;;
4748;SDS011;2388;53.582;9.962;2023-04-15T00:17:14;2.73;;;2.53;;
4748;SDS011;2388;53.582;9.962;2023-04-15T00:19:39;3.17;;;2.90;;
4748;SDS011;2388;53.582;9.962;2023-04-15T00:22:05;2.87;;;2.57;;
4748;SDS011;2388;53.582;9.962;2023-04-15T00:24:31;2.77;;;2.67;;
4748;SDS011;2388;53.582;9.962;2023-04-15T00:26:56;2.77;;;2.67;;
4748;SDS011;2388;53.582;9.962;2023-04-15T00:29:22;2.80;;;2.60;;
4748;SDS011;2388;53.582;9.962;2023-04-15T00:31:48;3.47;;;2.77;;
4748;SDS011;2388;53.582;9.962;2023-04-15T00:34:14;3.97;;;2.37;;
4748;SDS011;2388;53.582;9.962;2023-04-15T00:36:39;2.40;;;2.30;;
4748;SDS011;2388;53.582;9.962;2023-04-15T00:39:05;2.53;;;2.33;;
4748;SDS011;2388;53.582;9.962;2023-04-15T00:41:30;3.00;;;2.80;;
4748;SDS011;2388;53.582;9.962;2023-04-15T00:43:58;2.63;;;2.43;;
4748;SDS011;2388;53.582;9.962;2023-04-15T00:46:24;2.33;;;2.23;;
4748;SDS011;2388;53.582;9.962;2023-04-15T00:48:52;3.10;;;2.37;;
4748;SDS011;2388;53.582;9.962;2023-04-15T00:51:18;2.50;;;2.40;;
4748;SDS011;2388;53.582;9.962;2023-04-15T00:53:44;2.50;;;2.30;;
4748;SDS011;2388;53.582;9.962;2023-04-15T00:56:10;3.23;;;2.93;;
4748;SDS011;2388;53.582;9.962;2023-04-15T00:58:35;3.00;;;2.80;;
4748;SDS011;2388;53.582;9.962;2023-04-15T01:01:01;2.67;;;2.47;;
4748;SDS011;2388;53.582;9.962;2023-04-15T01:03:28;2.23;;;2.13;;
4748;SDS011;2388;53.582;9.962;2023-04-15T01:05:54;2.80;;;2.60;;
4748;SDS011;2388;53.582;9.962;2023-04-15T01:08:25;2.67;;;2.57;;
4748;SDS011;2388;53.582;9.962;2023-04-15T01:10:55;2.70;;;2.50;;
4748;SDS011;2388;53.582;9.962;2023-04-15T01:13:21;2.70;;;2.50;;
4748;SDS011;2388;53.582;9.962;2023-04-15T01:15:48;2.90;;;2.70;;
4748;SDS011;2388;53.582;9.962;2023-04-15T01:18:14;3.10;;;2.90;;
4748;SDS011;2388;53.582;9.962;2023-04-15T01:20:40;2.70;;;2.50;;
4748;SDS011;2388;53.582;9.962;2023-04-15T01:23:05;3.40;;;3.10;;
4748;SDS011;2388;53.582;9.962;2023-04-15T01:25:32;3.23;;;3.03;;
4748;SDS011;2388;53.582;9.962;2023-04-15T01:27:58;3.57;;;3.37;;
4748;SDS011;2388;53.582;9.962;2023-04-15T01:30:24;3.60;;;3.10;;
4748;SDS011;2388;53.582;9.962;2023-04-15T01:32:51;4.37;;;3.43;;
4748;SDS011;2388;53.582;9.962;2023-04-15T01:35:17;3.80;;;3.50;;
4748;SDS011;2388;53.582;9.962;2023-04-15T01:37:42;3.13;;;2.93;;
4748;SDS011;2388;53.582;9.962;2023-04-15T01:40:08;3.70;;;3.40;;
4748;SDS011;2388;53.582;9.962;2023-04-15T01:42:34;3.40;;;3.20;;
4748;SDS011;2388;53.582;9.962;2023-04-15T01:45:00;3.70;;;3.40;;
4748;SDS011;2388;53.582;9.962;2023-04-15T01:47:26;4.20;;;3.20;;
4748;SDS011;2388;53.582;9.962;2023-04-15T01:49:52;3.07;;;2.83;;
4748;SDS011;2388;53.582;9.962;2023-04-15T01:52:17;3.97;;;3.67;;
4748;SDS011;2388;53.582;9.962;2023-04-15T01:54:43;3.30;;;3.10;;
4748;SDS011;2388;53.582;9.962;2023-04-15T01:57:09;3.60;;;3.40;;
4748;SDS011;2388;53.582;9.962;2023-04-15T01:59:34;3.30;;;3.10;;
4748;SDS011;2388;53.582;9.962;2023-04-15T02:02:00;3.60;;;3.40;;
4748;SDS011;2388;53.582;9.962;2023-04-15T02:04:25;3.60;;;3.40;;
4748;SDS011;2388;53.582;9.962;2023-04-15T02:06:52;3.07;;;2.87;;
4748;SDS011;2388;53.582;9.962;2023-04-15T02:09:17;3.17;;;2.97;;
4748;SDS011;2388;53.582;9.962;2023-04-15T02:11:43;3.20;;;3.00;;
4748;SDS011;2388;53.582;9.962;2023-04-15T02:14:08;2.73;;;2.63;;
4748;SDS011;2388;53.582;9.962;2023-04-15T02:16:34;3.83;;;3.53;;
4748;SDS011;2388;53.582;9.962;2023-04-15T02:19:00;6.80;;;3.00;;
4748;SDS011;2388;53.582;9.962;2023-04-15T02:21:25;3.30;;;3.10;;
4748;SDS011;2388;53.582;9.962;2023-04-15T02:23:51;3.73;;;3.43;;
4748;SDS011;2388;53.582;9.962;2023-04-15T02:26:18;5.60;;;3.30;;
4748;SDS011;2388;53.582;9.962;2023-04-15T02:28:44;3.20;;;3.00;;
4748;SDS011;2388;53.582;9.962;2023-04-15T02:31:10;3.97;;;3.67;;
4748;SDS011;2388;53.582;9.962;2023-04-15T02:33:36;4.40;;;4.07;;
4748;SDS011;2388;53.582;9.962;2023-04-15T02:36:02;4.10;;;3.80;;
4748;SDS011;2388;53.582;9.962;2023-04-15T02:38:28;4.07;;;3.73;;
4748;SDS011;2388;53.582;9.962;2023-04-15T02:40:54;4.03;;;3.73;;
4748;SDS011;2388;53.582;9.962;2023-04-15T02:43:21;4.63;;;4.27;;
4748;SDS011;2388;53.582;9.962;2023-04-15T02:45:46;4.50;;;4.10;;
4748;SDS011;2388;53.582;9.962;2023-04-15T02:48:12;4.43;;;4.10;;
4748;SDS011;2388;53.582;9.962;2023-04-15T02:50:37;4.33;;;3.93;;
4748;SDS011;2388;53.582;9.962;2023-04-15T02:53:04;4.17;;;3.77;;
4748;SDS011;2388;53.582;9.962;2023-04-15T02:55:30;5.10;;;4.70;;
4748;SDS011;2388;53.582;9.962;2023-04-15T02:57:56;4.33;;;4.03;;
4748;SDS011;2388;53.582;9.962;2023-04-15T03:00:24;5.43;;;4.93;;
4748;SDS011;2388;53.582;9.962;2023-04-15T03:02:50;4.80;;;4.50;;
4748;SDS011;2388;53.582;9.962;2023-04-15T03:05:20;5.17;;;4.67;;
4748;SDS011;2388;53.582;9.962;2023-04-15T03:07:49;5.20;;;4.70;;
4748;SDS011;2388;53.582;9.962;2023-04-15T03:10:18;5.40;;;4.90;;
4748;SDS011;2388;53.582;9.962;2023-04-15T03:12:44;4.77;;;4.37;;
4748;SDS011;2388;53.582;9.962;2023-04-15T03:15:09;5.50;;;5.00;;
4748;SDS011;2388;53.582;9.962;2023-04-15T03:17:35;4.60;;;4.23;;
4748;SDS011;2388;53.582;9.962;2023-04-15T03:20:01;4.90;;;4.50;;
4748;SDS011;2388;53.582;9.962;2023-04-15T03:22:28;5.13;;;4.70;;
4748;SDS011;2388;53.582;9.962;2023-04-15T03:24:55;6.03;;;5.43;;
4748;SDS011;2388;53.582;9.962;2023-04-15T03:27:20;6.93;;;5.70;;
4748;SDS011;2388;53.582;9.962;2023-04-15T03:29:46;5.23;;;4.83;;
4748;SDS011;2388;53.582;9.962;2023-04-15T03:32:11;5.23;;;4.80;;
4748;SDS011;2388;53.582;9.962;2023-04-15T03:34:39;5.50;;;5.00;;
4748;SDS011;2388;53.582;9.962;2023-04-15T03:37:05;19.37;;;10.53;;
4748;SDS011;2388;53.582;9.962;2023-04-15T03:39:30;6.63;;;5.97;;
4748;SDS011;2388;53.582;9.962;2023-04-15T03:41:56;6.10;;;5.60;;
4748;SDS011;2388;53.582;9.962;2023-04-15T03:44:23;6.67;;;5.97;;
4748;SDS011;2388;53.582;9.962;2023-04-15T03:46:48;5.47;;;4.97;;
4748;SDS011;2388;53.582;9.962;2023-04-15T03:49:14;6.73;;;5.73;;
4748;SDS011;2388;53.582;9.962;2023-04-15T03:51:40;9.40;;;6.07;;
4748;SDS011;2388;53.582;9.962;2023-04-15T03:54:05;6.80;;;5.80;;
4748;SDS011;2388;53.582;9.962;2023-04-15T03:56:31;7.20;;;6.50;;
4748;SDS011;2388;53.582;9.962;2023-04-15T03:58:56;6.97;;;6.27;;
4748;SDS011;2388;53.582;9.962;2023-04-15T04:01:22;6.60;;;6.00;;
4748;SDS011;2388;53.582;9.962;2023-04-15T04:03:47;7.73;;;6.83;;
4748;SDS011;2388;53.582;9.962;2023-04-15T04:06:13;9.10;;;7.00;;
4748;SDS011;2388;53.582;9.962;2023-04-15T04:08:39;6.77;;;6.03;;
4748;SDS011;2388;53.582;9.962;2023-04-15T04:11:05;7.50;;;6.43;;
4748;SDS011;2388;53.582;9.962;2023-04-15T04:13:30;11.10;;;8.80;;
4748;SDS011;2388;53.582;9.962;2023-04-15T04:15:56;8.03;;;6.47;;
4748;SDS011;2388;53.582;9.962;2023-04-15T04:18:21;8.60;;;7.70;;
4748;SDS011;2388;53.582;9.962;2023-04-15T04:20:47;9.53;;;7.87;;
4748;SDS011;2388;53.582;9.962;2023-04-15T04:23:12;14.67;;;8.97;;
4748;SDS011;2388;53.582;9.962;2023-04-15T04:25:38;9.90;;;7.93;;
4748;SDS011;2388;53.582;9.962;2023-04-15T04:28:03;9.90;;;8.00;;
4748;SDS011;2388;53.582;9.962;2023-04-15T04:30:29;10.93;;;9.13;;
4748;SDS011;2388;53.582;9.962;2023-04-15T04:32:54;9.80;;;7.67;;
4748;SDS011;2388;53.582;9.962;2023-04-15T04:35:20;10.13;;;7.90;;
4748;SDS011;2388;53.582;9.962;2023-04-15T04:37:45;9.97;;;7.90;;
4748;SDS011;2388;53.582;9.962;2023-04-15T04:40:11;12.10;;;10.00;;
4748;SDS011;2388;53.582;9.962;2023-04-15T04:42:37;11.60;;;9.43;;
4748;SDS011;2388;53.582;9.962;2023-04-15T04:45:03;13.90;;;9.63;;
4748;SDS011;2388;53.582;9.962;2023-04-15T04:47:29;14.97;;;9.93;;
4748;SDS011;2388;53.582;9.962;2023-04-15T04:49:54;13.40;;;9.80;;
4748;SDS011;2388;53.582;9.962;2023-04-15T04:52:20;14.63;;;10.00;;
4748;SDS011;2388;53.582;9.962;2023-04-15T04:54:45;10.30;;;9.20;;
4748;SDS011;2388;53.582;9.962;2023-04-15T04:57:11;14.03;;;10.00;;
4748;SDS011;2388;53.582;9.962;2023-04-15T04:59:37;11.40;;;9.13;;
4748;SDS011;2388;53.582;9.962;2023-04-15T05:02:03;16.33;;;11.50;;
4748;SDS011;2388;53.582;9.962;2023-04-15T05:04:29;16.50;;;11.80;;
4748;SDS011;2388;53.582;9.962;2023-04-15T05:06:56;14.07;;;11.00;;
4748;SDS011;2388;53.582;9.962;2023-04-15T05:09:28;14.90;;;11.53;;
4748;SDS011;2388;53.582;9.962;2023-04-15T05:11:56;17.63;;;11.57;;
4748;SDS011;2388;53.582;9.962;2023-04-15T05:14:21;17.40;;;12.80;;
4748;SDS011;2388;53.582;9.962;2023-04-15T05:16:47;14.10;;;11.50;;
4748;SDS011;2388;53.582;9.962;2023-04-15T05:19:12;18.33;;;12.70;;
4748;SDS011;2388;53.582;9.962;2023-04-15T05:21:38;18.33;;;12.30;;
4748;SDS011;2388;53.582;9.962;2023-04-15T05:24:03;16.63;;;12.80;;
4748;SDS011;2388;53.582;9.962;2023-04-15T05:26:29;19.10;;;13.57;;
4748;SDS011;2388;53.582;9.962;2023-04-15T05:28:55;18.27;;;12.80;;
4748;SDS011;2388;53.582;9.962;2023-04-15T05:31:21;24.30;;;15.67;;
4748;SDS011;2388;53.582;9.962;2023-04-15T05:33:46;21.73;;;14.73;;
4748;SDS011;2388;53.582;9.962;2023-04-15T05:36:12;19.53;;;13.90;;
4748;SDS011;2388;53.582;9.962;2023-04-15T05:38:37;19.40;;;13.50;;
4748;SDS011;2388;53.582;9.962;2023-04-15T05:41:03;19.37;;;14.23;;
4748;SDS011;2388;53.582;9.962;2023-04-15T05:43:28;19.50;;;13.80;;
4748;SDS011;2388;53.582;9.962;2023-04-15T05:45:54;20.03;;;13.80;;
4748;SDS011;2388;53.582;9.962;2023-04-15T05:48:20;19.60;;;13.40;;
4748;SDS011;2388;53.582;9.962;2023-04-15T05:50:46;20.27;;;14.93;;
4748;SDS011;2388;53.582;9.962;2023-04-15T05:53:11;17.60;;;13.13;;
4748;SDS011;2388;53.582;9.962;2023-04-15T05:55:37;23.20;;;15.13;;
4748;SDS011;2388;53.582;9.962;2023-04-15T05:58:02;20.73;;;14.27;;
4748;SDS011;2388;53.582;9.962;2023-04-15T06:00:27;15.77;;;12.73;;
4748;SDS011;2388;53.582;9.962;2023-04-15T06:02:54;18.93;;;13.33;;
4748;SDS011;2388;53.582;9.962;2023-04-15T06:05:20;18.70;;;13.67;;
4748;SDS011;2388;53.582;9.962;2023-04-15T06:07:45;20.00;;;13.70;;
4748;SDS011;2388;53.582;9.962;2023-04-15T06:10:11;18.57;;;14.13;;
4748;SDS011;2388;53.582;9.962;2023-04-15T06:12:36;18.53;;;13.47;;
4748;SDS011;2388;53.582;9.962;2023-04-15T06:15:02;18.43;;;13.40;;
4748;SDS011;2388;53.582;9.962;2023-04-15T06:17:28;20.03;;;14.17;;
4748;SDS011;2388;53.582;9.962;2023-04-15T06:19:53;20.90;;;13.90;;
4748;SDS011;2388;53.582;9.962;2023-04-15T06:22:22;20.70;;;14.77;;
4748;SDS011;2388;53.582;9.962;2023-04-15T06:24:48;20.47;;;14.30;;
4748;SDS011;2388;53.582;9.962;2023-04-15T06:27:15;19.67;;;14.60;;
4748;SDS011;2388;53.582;9.962;2023-04-15T06:29:41;20.47;;;14.53;;
4748;SDS011;2388;53.582;9.962;2023-04-15T06:32:06;25.10;;;17.33;;
4748;SDS011;2388;53.582;9.962;2023-04-15T06:34:32;23.67;;;16.97;;
4748;SDS011;2388;53.582;9.962;2023-04-15T06:36:57;22.17;;;15.47;;
4748;SDS011;2388;53.582;9.962;2023-04-15T06:39:23;24.40;;;17.10;;
4748;SDS011;2388;53.582;9.962;2023-04-15T06:41:48;23.07;;;16.13;;
4748;SDS011;2388;53.582;9.962;2023-04-15T06:44:14;25.47;;;17.97;;
4748;SDS011;2388;53.582;9.962;2023-04-15T06:46:40;25.33;;;16.97;;
4748;SDS011;2388;53.582;9.962;2023-04-15T06:49:05;27.33;;;18.37;;
4748;SDS011;2388;53.582;9.962;2023-04-15T06:51:31;26.13;;;18.03;;
4748;SDS011;2388;53.582;9.962;2023-04-15T06:53:56;26.63;;;17.97;;
4748;SDS011;2388;53.582;9.962;2023-04-15T06:56:22;27.80;;;18.90;;
4748;SDS011;2388;53.582;9.962;2023-04-15T06:58:47;27.77;;;18.30;;
4748;SDS011;2388;53.582;9.962;2023-04-15T07:01:13;26.07;;;18.50;;
4748;SDS011;2388;53.582;9.962;2023-04-15T07:03:38;29.80;;;19.53;;
4748;SDS011;2388;53.582;9.962;2023-04-15T07:06:05;30.37;;;20.27;;
4748;SDS011;2388;53.582;9.962;2023-04-15T07:08:31;30.07;;;19.93;;
4748;SDS011;2388;53.582;9.962;2023-04-15T07:10:58;32.27;;;20.73;;
4748;SDS011;2388;53.582;9.962;2023-04-15T07:13:24;32.13;;;21.17;;
4748;SDS011;2388;53.582;9.962;2023-04-15T07:15:50;35.80;;;21.10;;
4748;SDS011;2388;53.582;9.962;2023-04-15T07:18:15;35.50;;;21.87;;
4748;SDS011;2388;53.582;9.962;2023-04-15T07:20:41;34.47;;;22.50;;
4748;SDS011;2388;53.582;9.962;2023-04-15T07:23:07;38.03;;;24.00;;
4748;SDS011;2388;53.582;9.962;2023-04-15T07:25:33;39.20;;;23.53;;
4748;SDS011;2388;53.582;9.962;2023-04-15T07:27:58;38.53;;;22.90;;
4748;SDS011;2388;53.582;9.962;2023-04-15T07:30:24;34.33;;;21.63;;
4748;SDS011;2388;53.582;9.962;2023-04-15T07:32:49;29.90;;;20.80;;
4748;SDS011;2388;53.582;9.962;2023-04-15T07:35:15;33.20;;;22.00;;
4748;SDS011;2388;53.582;9.962;2023-04-15T07:37:40;39.87;;;23.03;;
4748;SDS011;2388;53.582;9.962;2023-04-15T07:40:07;33.27;;;22.20;;
4748;SDS011;2388;53.582;9.962;2023-04-15T07:42:34;31.43;;;21.47;;
4748;SDS011;2388;53.582;9.962;2023-04-15T07:44:59;33.57;;;22.20;;
4748;SDS011;2388;53.582;9.962;2023-04-15T07:47:25;38.17;;;24.60;;
4748;SDS011;2388;53.582;9.962;2023-04-15T07:49:51;37.90;;;23.30;;
4748;SDS011;2388;53.582;9.962;2023-04-15T07:52:17;36.37;;;22.70;;
4748;SDS011;2388;53.582;9.962;2023-04-15T07:54:42;37.17;;;22.90;;
4748;SDS011;2388;53.582;9.962;2023-04-15T07:57:08;38.70;;;24.00;;
4748;SDS011;2388;53.582;9.962;2023-04-15T07:59:34;38.17;;;24.60;;
4748;SDS011;2388;53.582;9.962;2023-04-15T08:01:59;35.17;;;22.37;;
4748;SDS011;2388;53.582;9.962;2023-04-15T08:04:25;33.30;;;22.33;;
4748;SDS011;2388;53.582;9.962;2023-04-15T08:06:51;36.60;;;23.07;;
4748;SDS011;2388;53.582;9.962;2023-04-15T08:09:16;36.53;;;22.80;;
4748;SDS011;2388;53.582;9.962;2023-04-15T08:11:42;37.67;;;22.90;;
4748;SDS011;2388;53.582;9.962;2023-04-15T08:14:07;34.20;;;23.23;;
4748;SDS011;2388;53.582;9.962;2023-04-15T08:16:33;39.03;;;22.77;;
4748;SDS011;2388;53.582;9.962;2023-04-15T08:18:58;38.33;;;24.00;;
4748;SDS011;2388;53.582;9.962;2023-04-15T08:21:24;38.63;;;24.60;;
4748;SDS011;2388;53.582;9.962;2023-04-15T08:23:50;35.20;;;22.90;;
4748;SDS011;2388;53.582;9.962;2023-04-15T08:26:17;32.63;;;21.40;;
4748;SDS011;2388;53.582;9.962;2023-04-15T08:28:44;34.70;;;22.80;;
4748;SDS011;2388;53.582;9.962;2023-04-15T08:31:11;33.70;;;22.10;;
4748;SDS011;2388;53.582;9.962;2023-04-15T08:33:37;39.40;;;23.50;;
4748;SDS011;2388;53.582;9.962;2023-04-15T08:36:03;36.40;;;22.20;;
4748;SDS011;2388;53.582;9.962;2023-04-15T08:38:29;35.37;;;22.53;;
4748;SDS011;2388;53.582;9.962;2023-04-15T08:40:55;34.30;;;22.77;;
4748;SDS011;2388;53.582;9.962;2023-04-15T08:43:26;36.70;;;22.97;;
4748;SDS011;2388;53.582;9.962;2023-04-15T08:45:54;34.37;;;22.80;;
4748;SDS011;2388;53.582;9.962;2023-04-15T08:48:22;33.20;;;22.20;;
4748;SDS011;2388;53.582;9.962;2023-04-15T08:50:51;38.93;;;23.70;;
4748;SDS011;2388;53.582;9.962;2023-04-15T08:53:17;35.23;;;22.97;;
4748;SDS011;2388;53.582;9.962;2023-04-15T08:55:44;33.33;;;22.70;;
4748;SDS011;2388;53.582;9.962;2023-04-15T08:58:10;36.40;;;23.57;;
4748;SDS011;2388;53.582;9.962;2023-04-15T09:00:37;44.23;;;23.90;;
4748;SDS011;2388;53.582;9.962;2023-04-15T09:03:04;32.43;;;23.10;;
4748;SDS011;2388;53.582;9.962;2023-04-15T09:05:34;36.10;;;23.43;;
4748;SDS011;2388;53.582;9.962;2023-04-15T09:08:01;35.93;;;22.97;;
4748;SDS011;2388;53.582;9.962;2023-04-15T09:10:27;42.60;;;24.00;;
4748;SDS011;2388;53.582;9.962;2023-04-15T09:12:54;36.70;;;23.53;;
4748;SDS011;2388;53.582;9.962;2023-04-15T09:15:20;38.33;;;23.07;;
4748;SDS011;2388;53.582;9.962;2023-04-15T09:17:46;35.87;;;23.00;;
4748;SDS011;2388;53.582;9.962;2023-04-15T09:20:13;35.73;;;23.33;;
4748;SDS011;2388;53.582;9.962;2023-04-15T09:22:40;39.40;;;24.80;;
4748;SDS011;2388;53.582;9.962;2023-04-15T09:25:27;41.53;;;24.77;;
4748;SDS011;2388;53.582;9.962;2023-04-15T09:27:54;37.33;;;23.27;;
4748;SDS011;2388;53.582;9.962;2023-04-15T09:30:21;40.60;;;24.90;;
4748;SDS011;2388;53.582;9.962;2023-04-15T09:32:59;37.37;;;23.63;;
4748;SDS011;2388;53.582;9.962;2023-04-15T09:35:26;35.80;;;22.57;;
4748;SDS011;2388;53.582;9.962;2023-04-15T09:37:52;36.80;;;24.50;;
4748;SDS011;2388;53.582;9.962;2023-04-15T09:40:32;43.43;;;25.80;;
4748;SDS011;2388;53.582;9.962;2023-04-15T09:43:00;39.10;;;24.27;;
4748;SDS011;2388;53.582;9.962;2023-04-15T09:45:26;38.57;;;24.10;;
4748;SDS011;2388;53.582;9.962;2023-04-15T09:47:52;40.40;;;25.67;;
4748;SDS011;2388;53.582;9.962;2023-04-15T09:50:19;43.70;;;29.83;;
4748;SDS011;2388;53.582;9.962;2023-04-15T09:52:45;33.70;;;22.47;;
4748;SDS011;2388;53.582;9.962;2023-04-15T09:55:11;39.07;;;25.13;;
4748;SDS011;2388;53.582;9.962;2023-04-15T09:57:38;36.40;;;24.00;;
4748;SDS011;2388;53.582;9.962;2023-04-15T10:00:08;38.10;;;24.37;;
4748;SDS011;2388;53.582;9.962;2023-04-15T10:02:35;28.67;;;20.57;;
4748;SDS011;2388;53.582;9.962;2023-04-15T10:05:02;42.70;;;23.37;;
4748;SDS011;2388;53.582;9.962;2023-04-15T10:07:28;36.93;;;23.13;;
4748;SDS011;2388;53.582;9.962;2023-04-15T10:09:54;32.30;;;22.30;;
4748;SDS011;2388;53.582;9.962;2023-04-15T10:12:20;38.17;;;22.23;;
4748;SDS011;2388;53.582;9.962;2023-04-15T10:14:47;37.67;;;24.70;;
4748;SDS011;2388;53.582;9.962;2023-04-15T10:17:17;36.80;;;23.40;;
4748;SDS011;2388;53.582;9.962;2023-04-15T10:19:46;33.20;;;20.97;;
4748;SDS011;2388;53.582;9.962;2023-04-15T10:22:13;31.37;;;20.70;;
4748;SDS011;2388;53.582;9.962;2023-04-15T10:24:39;32.77;;;22.27;;
4748;SDS011;2388;53.582;9.962;2023-04-15T10:27:05;34.00;;;23.23;;
4748;SDS011;2388;53.582;9.962;2023-04-15T10:29:31;32.30;;;22.63;;
4748;SDS011;2388;53.582;9.962;2023-04-15T10:31:58;29.60;;;20.60;;
4748;SDS011;2388;53.582;9.962;2023-04-15T10:34:24;28.03;;;22.30;;
4748;SDS011;2388;53.582;9.962;2023-04-15T10:36:50;33.83;;;21.67;;
4748;SDS011;2388;53.582;9.962;2023-04-15T10:42:11;32.90;;;21.23;;
4748;SDS011;2388;53.582;9.962;2023-04-15T10:44:41;25.90;;;18.93;;
4748;SDS011;2388;53.582;9.962;2023-04-15T10:47:20;28.33;;;20.50;;
4748;SDS011;2388;53.582;9.962;2023-04-15T10:49:47;24.50;;;18.50;;
4748;SDS011;2388;53.582;9.962;2023-04-15T10:52:14;30.13;;;20.60;;
4748;SDS011;2388;53.582;9.962;2023-04-15T10:54:41;26.23;;;19.43;;
4748;SDS011;2388;53.582;9.962;2023-04-15T10:57:08;24.33;;;17.43;;
4748;SDS011;2388;53.582;9.962;2023-04-15T10:59:58;18.70;;;15.47;;
4748;SDS011;2388;53.582;9.962;2023-04-15T11:02:46;18.53;;;14.80;;
4748;SDS011;2388;53.582;9.962;2023-04-15T11:05:19;16.17;;;13.43;;
4748;SDS011;2388;53.582;9.962;2023-04-15T11:07:47;17.10;;;13.90;;
4748;SDS011;2388;53.582;9.962;2023-04-15T11:12:53;19.37;;;12.70;;
4748;SDS011;2388;53.582;9.962;2023-04-15T11:17:56;14.17;;;12.00;;
4748;SDS011;2388;53.582;9.962;2023-04-15T11:20:23;12.57;;;10.60;;
4748;SDS011;2388;53.582;9.962;2023-04-15T11:22:49;15.70;;;12.50;;
4748;SDS011;2388;53.582;9.962;2023-04-15T11:25:25;13.00;;;9.67;;
4748;SDS011;2388;53.582;9.962;2023-04-15T11:27:55;11.90;;;9.43;;
4748;SDS011;2388;53.582;9.962;2023-04-15T11:32:51;10.33;;;9.13;;
4748;SDS011;2388;53.582;9.962;2023-04-15T11:35:19;15.00;;;9.43;;
4748;SDS011;2388;53.582;9.962;2023-04-15T11:37:44;10.60;;;8.60;;
4748;SDS011;2388;53.582;9.962;2023-04-15T11:40:11;9.90;;;8.90;;
4748;SDS011;2388;53.582;9.962;2023-04-15T11:42:37;11.23;;;9.50;;
4748;SDS011;2388;53.582;9.962;2023-04-15T11:45:05;11.27;;;9.80;;
4748;SDS011;2388;53.582;9.962;2023-04-15T11:47:31;10.40;;;8.70;;
4748;SDS011;2388;53.582;9.962;2023-04-15T11:49:57;17.07;;;9.63;;
4748;SDS011;2388;53.582;9.962;2023-04-15T11:52:37;13.17;;;8.37;;
4748;SDS011;2388;53.582;9.962;2023-04-15T11:55:02;9.87;;;8.33;;
4748;SDS011;2388;53.582;9.962;2023-04-15T11:57:31;8.93;;;8.00;;
4748;SDS011;2388;53.582;9.962;2023-04-15T11:59:58;14.90;;;8.57;;
4748;SDS011;2388;53.582;9.962;2023-04-15T12:02:30;8.60;;;7.70;;
4748;SDS011;2388;53.582;9.962;2023-04-15T12:05:06;9.17;;;8.33;;
4748;SDS011;2388;53.582;9.962;2023-04-15T12:07:32;9.30;;;7.80;;
4748;SDS011;2388;53.582;9.962;2023-04-15T12:09:58;13.00;;;8.47;;
4748;SDS011;2388;53.582;9.962;2023-04-15T12:12:27;10.63;;;7.63;;
4748;SDS011;2388;53.582;9.962;2023-04-15T12:14:55;11.43;;;7.63;;
4748;SDS011;2388;53.582;9.962;2023-04-15T12:17:21;10.43;;;9.43;;
4748;SDS011;2388;53.582;9.962;2023-04-15T12:19:48;10.93;;;9.37;;
4748;SDS011;2388;53.582;9.962;2023-04-15T12:22:20;9.43;;;8.17;;
4748;SDS011;2388;53.582;9.962;2023-04-15T12:24:46;12.00;;;8.37;;
4748;SDS011;2388;53.582;9.962;2023-04-15T12:27:13;13.63;;;9.37;;
4748;SDS011;2388;53.582;9.962;2023-04-15T12:29:41;12.90;;;8.87;;
4748;SDS011;2388;53.582;9.962;2023-04-15T12:32:08;8.73;;;7.73;;
4748;SDS011;2388;53.582;9.962;2023-04-15T12:34:37;10.40;;;8.30;;
4748;SDS011;2388;53.582;9.962;2023-04-15T12:37:05;11.63;;;9.50;;
4748;SDS011;2388;53.582;9.962;2023-04-15T12:39:34;8.83;;;7.93;;
4748;SDS011;2388;53.582;9.962;2023-04-15T12:42:02;10.23;;;7.40;;
4748;SDS011;2388;53.582;9.962;2023-04-15T12:44:28;8.63;;;7.83;;
4748;SDS011;2388;53.582;9.962;2023-04-15T12:46:54;9.10;;;8.30;;
4748;SDS011;2388;53.582;9.962;2023-04-15T12:49:20;9.50;;;8.50;;
4748;SDS011;2388;53.582;9.962;2023-04-15T12:51:47;8.47;;;7.67;;
4748;SDS011;2388;53.582;9.962;2023-04-15T12:54:14;10.60;;;8.20;;
4748;SDS011;2388;53.582;9.962;2023-04-15T12:56:41;10.63;;;8.80;;
4748;SDS011;2388;53.582;9.962;2023-04-15T12:59:07;9.07;;;8.20;;
4748;SDS011;2388;53.582;9.962;2023-04-15T13:01:32;13.33;;;7.90;;
4748;SDS011;2388;53.582;9.962;2023-04-15T13:03:58;8.97;;;8.03;;
4748;SDS011;2388;53.582;9.962;2023-04-15T13:06:23;11.53;;;8.80;;
4748;SDS011;2388;53.582;9.962;2023-04-15T13:08:49;11.80;;;8.80;;
4748;SDS011;2388;53.582;9.962;2023-04-15T13:11:15;8.83;;;7.93;;
4748;SDS011;2388;53.582;9.962;2023-04-15T13:13:41;12.07;;;9.00;;
4748;SDS011;2388;53.582;9.962;2023-04-15T13:16:06;9.07;;;8.17;;
4748;SDS011;2388;53.582;9.962;2023-04-15T13:18:33;13.23;;;8.93;;
4748;SDS011;2388;53.582;9.962;2023-04-15T13:20:59;11.30;;;7.57;;
4748;SDS011;2388;53.582;9.962;2023-04-15T13:23:25;13.90;;;9.10;;
4748;SDS011;2388;53.582;9.962;2023-04-15T13:25:50;11.03;;;8.37;;
4748;SDS011;2388;53.582;9.962;2023-04-15T13:28:16;9.57;;;8.20;;
4748;SDS011;2388;53.582;9.962;2023-04-15T13:30:41;9.83;;;7.70;;
4748;SDS011;2388;53.582;9.962;2023-04-15T13:33:08;8.93;;;8.03;;
4748;SDS011;2388;53.582;9.962;2023-04-15T13:35:33;7.40;;;6.70;;
4748;SDS011;2388;53.582;9.962;2023-04-15T13:37:59;10.97;;;8.70;;
4748;SDS011;2388;53.582;9.962;2023-04-15T13:40:25;9.93;;;8.70;;
4748;SDS011;2388;53.582;9.962;2023-04-15T13:42:50;10.80;;;8.80;;
4748;SDS011;2388;53.582;9.962;2023-04-15T13:45:17;7.87;;;7.07;;
4748;SDS011;2388;53.582;9.962;2023-04-15T13:47:42;8.20;;;7.40;;
4748;SDS011;2388;53.582;9.962;2023-04-15T13:50:08;10.17;;;8.53;;
4748;SDS011;2388;53.582;9.962;2023-04-15T13:52:34;8.10;;;7.30;;
4748;SDS011;2388;53.582;9.962;2023-04-15T13:54:59;7.40;;;6.70;;
4748;SDS011;2388;53.582;9.962;2023-04-15T13:57:25;9.47;;;7.90;;
4748;SDS011;2388;53.582;9.962;2023-04-15T13:59:51;13.47;;;7.87;;
4748;SDS011;2388;53.582;9.962;2023-04-15T14:02:16;7.17;;;6.50;;
4748;SDS011;2388;53.582;9.962;2023-04-15T14:04:44;7.80;;;7.10;;
4748;SDS011;2388;53.582;9.962;2023-04-15T14:07:10;8.97;;;6.90;;
4748;SDS011;2388;53.582;9.962;2023-04-15T14:09:35;10.27;;;6.80;;
4748;SDS011;2388;53.582;9.962;2023-04-15T14:12:01;7.57;;;6.73;;
4748;SDS011;2388;53.582;9.962;2023-04-15T14:14:26;5.77;;;5.27;;
4748;SDS011;2388;53.582;9.962;2023-04-15T14:16:52;6.50;;;6.00;;
4748;SDS011;2388;53.582;9.962;2023-04-15T14:19:18;7.83;;;6.60;;
4748;SDS011;2388;53.582;9.962;2023-04-15T14:21:44;9.07;;;6.87;;
4748;SDS011;2388;53.582;9.962;2023-04-15T14:24:10;8.00;;;6.87;;
4748;SDS011;2388;53.582;9.962;2023-04-15T14:26:35;12.87;;;6.47;;
4748;SDS011;2388;53.582;9.962;2023-04-15T14:29:01;8.75;;;7.10;;
4748;SDS011;2388;53.582;9.962;2023-04-15T14:31:26;10.73;;;7.00;;
4748;SDS011;2388;53.582;9.962;2023-04-15T14:33:52;7.77;;;6.70;;
4748;SDS011;2388;53.582;9.962;2023-04-15T14:36:17;7.57;;;6.87;;
4748;SDS011;2388;53.582;9.962;2023-04-15T14:38:43;7.87;;;6.87;;
4748;SDS011;2388;53.582;9.962;2023-04-15T14:41:08;6.93;;;6.17;;
4748;SDS011;2388;53.582;9.962;2023-04-15T14:43:34;8.20;;;6.33;;
4748;SDS011;2388;53.582;9.962;2023-04-15T14:46:00;6.73;;;6.10;;
4748;SDS011;2388;53.582;9.962;2023-04-15T14:48:26;7.33;;;6.60;;
4748;SDS011;2388;53.582;9.962;2023-04-15T14:50:52;6.53;;;6.03;;
4748;SDS011;2388;53.582;9.962;2023-04-15T14:53:17;7.83;;;7.10;;
4748;SDS011;2388;53.582;9.962;2023-04-15T14:55:43;7.63;;;6.90;;
4748;SDS011;2388;53.582;9.962;2023-04-15T14:58:09;9.33;;;6.93;;
4748;SDS011;2388;53.582;9.962;2023-04-15T15:00:35;6.50;;;5.90;;
4748;SDS011;2388;53.582;9.962;2023-04-15T15:03:04;7.10;;;6.43;;
4748;SDS011;2388;53.582;9.962;2023-04-15T15:05:36;6.77;;;6.17;;
4748;SDS011;2388;53.582;9.962;2023-04-15T15:08:06;6.30;;;5.80;;